sensor_id;sensor_type;location;lat;lon;timestamp;P1;durP1;ratioP1;P2;durP2;ratioP2
55268;SDS011;41131;42.990;21.954;2022-12-07T00:01:15;113.55;;;87.57;;
55268;SDS011;41131;42.990;21.954;2022-12-07T00:03:46;112.28;;;88.53;;
55268;SDS011;41131;42.990;21.954;2022-12-07T00:06:13;115.63;;;89.45;;
55268;SDS011;41131;42.990;21.954;2022-12-07T00:08:40;122.72;;;93.47;;
55268;SDS011;41131;42.990;21.954;2022-12-07T00:13:39;110.30;;;86.28;;
55268;SDS011;41131;42.990;21.954;2022-12-07T00:16:13;117.60;;;90.57;;
55268;SDS011;41131;42.990;21.954;2022-12-07T00:18:40;123.70;;;96.35;;
55268;SDS011;41131;42.990;21.954;2022-12-07T00:21:11;132.60;;;101.47;;
55268;SDS011;41131;42.990;21.954;2022-12-07T00:23:45;140.07;;;106.15;;
55268;SDS011;41131;42.990;21.954;2022-12-07T00:28:38;147.00;;;106.30;;
55268;SDS011;41131;42.990;21.954;2022-12-07T00:31:09;139.88;;;105.32;;
55268;SDS011;41131;42.990;21.954;2022-12-07T00:33:37;143.60;;;108.93;;
55268;SDS011;41131;42.990;21.954;2022-12-07T00:36:04;162.18;;;117.47;;
55268;SDS011;41131;42.990;21.954;2022-12-07T00:38:33;183.93;;;133.30;;
55268;SDS011;41131;42.990;21.954;2022-12-07T00:41:01;191.48;;;132.25;;
55268;SDS011;41131;42.990;21.954;2022-12-07T00:43:28;202.70;;;140.15;;
55268;SDS011;41131;42.990;21.954;2022-12-07T00:45:55;190.80;;;135.15;;
55268;SDS011;41131;42.990;21.954;2022-12-07T00:48:21;181.48;;;130.00;;
55268;SDS011;41131;42.990;21.954;2022-12-07T00:50:47;185.40;;;135.25;;
55268;SDS011;41131;42.990;21.954;2022-12-07T00:53:14;201.98;;;138.88;;
55268;SDS011;41131;42.990;21.954;2022-12-07T00:55:40;202.20;;;141.00;;
55268;SDS011;41131;42.990;21.954;2022-12-07T00:58:06;204.93;;;139.77;;
55268;SDS011;41131;42.990;21.954;2022-12-07T01:00:32;169.73;;;124.20;;
55268;SDS011;41131;42.990;21.954;2022-12-07T01:02:58;147.80;;;108.55;;
55268;SDS011;41131;42.990;21.954;2022-12-07T01:05:24;145.20;;;106.28;;
55268;SDS011;41131;42.990;21.954;2022-12-07T01:07:50;141.30;;;103.65;;
55268;SDS011;41131;42.990;21.954;2022-12-07T01:10:16;141.20;;;102.63;;
55268;SDS011;41131;42.990;21.954;2022-12-07T01:12:42;138.10;;;103.15;;
55268;SDS011;41131;42.990;21.954;2022-12-07T01:15:07;118.60;;;91.30;;
55268;SDS011;41131;42.990;21.954;2022-12-07T01:17:34;103.95;;;82.15;;
55268;SDS011;41131;42.990;21.954;2022-12-07T01:20:00;103.05;;;80.32;;
55268;SDS011;41131;42.990;21.954;2022-12-07T01:22:26;100.43;;;79.68;;
55268;SDS011;41131;42.990;21.954;2022-12-07T01:24:52;107.80;;;82.47;;
55268;SDS011;41131;42.990;21.954;2022-12-07T01:27:17;102.25;;;79.32;;
55268;SDS011;41131;42.990;21.954;2022-12-07T01:29:43;105.45;;;82.80;;
55268;SDS011;41131;42.990;21.954;2022-12-07T01:32:09;111.97;;;84.90;;
55268;SDS011;41131;42.990;21.954;2022-12-07T01:34:35;110.65;;;86.30;;
55268;SDS011;41131;42.990;21.954;2022-12-07T01:37:01;108.75;;;82.22;;
55268;SDS011;41131;42.990;21.954;2022-12-07T01:39:27;114.82;;;86.90;;
55268;SDS011;41131;42.990;21.954;2022-12-07T01:41:53;114.07;;;85.32;;
55268;SDS011;41131;42.990;21.954;2022-12-07T01:46:47;112.97;;;87.55;;
55268;SDS011;41131;42.990;21.954;2022-12-07T01:54:55;124.97;;;94.30;;
55268;SDS011;41131;42.990;21.954;2022-12-07T01:57:25;117.93;;;92.88;;
55268;SDS011;41131;42.990;21.954;2022-12-07T01:59:51;132.90;;;101.85;;
55268;SDS011;41131;42.990;21.954;2022-12-07T02:02:19;122.07;;;93.10;;
55268;SDS011;41131;42.990;21.954;2022-12-07T02:04:48;136.55;;;102.13;;
55268;SDS011;41131;42.990;21.954;2022-12-07T02:07:15;136.60;;;98.50;;
55268;SDS011;41131;42.990;21.954;2022-12-07T02:09:42;124.07;;;95.40;;
55268;SDS011;41131;42.990;21.954;2022-12-07T02:12:07;123.57;;;91.18;;
55268;SDS011;41131;42.990;21.954;2022-12-07T02:14:33;116.90;;;87.82;;
55268;SDS011;41131;42.990;21.954;2022-12-07T02:29:16;81.55;;;61.25;;
55268;SDS011;41131;42.990;21.954;2022-12-07T02:31:53;79.03;;;60.33;;
55268;SDS011;41131;42.990;21.954;2022-12-07T02:37:17;65.97;;;52.00;;
55268;SDS011;41131;42.990;21.954;2022-12-07T02:40:09;72.78;;;50.78;;
55268;SDS011;41131;42.990;21.954;2022-12-07T02:42:44;65.68;;;49.10;;
55268;SDS011;41131;42.990;21.954;2022-12-07T02:45:15;69.32;;;48.60;;
55268;SDS011;41131;42.990;21.954;2022-12-07T02:47:44;66.28;;;46.88;;
55268;SDS011;41131;42.990;21.954;2022-12-07T02:50:14;59.97;;;45.72;;
55268;SDS011;41131;42.990;21.954;2022-12-07T02:52:39;62.08;;;46.10;;
55268;SDS011;41131;42.990;21.954;2022-12-07T02:55:06;62.25;;;45.72;;
55268;SDS011;41131;42.990;21.954;2022-12-07T03:00:18;61.30;;;46.90;;
55268;SDS011;41131;42.990;21.954;2022-12-07T03:02:48;57.00;;;44.70;;
55268;SDS011;41131;42.990;21.954;2022-12-07T03:10:56;70.60;;;52.63;;
55268;SDS011;41131;42.990;21.954;2022-12-07T03:13:42;64.85;;;51.33;;
55268;SDS011;41131;42.990;21.954;2022-12-07T03:16:19;70.70;;;53.30;;
55268;SDS011;41131;42.990;21.954;2022-12-07T03:19:00;71.30;;;54.15;;
55268;SDS011;41131;42.990;21.954;2022-12-07T03:21:42;70.53;;;55.05;;
55268;SDS011;41131;42.990;21.954;2022-12-07T03:24:16;69.53;;;53.08;;
55268;SDS011;41131;42.990;21.954;2022-12-07T03:26:47;70.70;;;53.60;;
55268;SDS011;41131;42.990;21.954;2022-12-07T03:29:18;67.55;;;51.33;;
55268;SDS011;41131;42.990;21.954;2022-12-07T03:31:52;65.47;;;50.67;;
55268;SDS011;41131;42.990;21.954;2022-12-07T03:37:20;66.70;;;51.33;;
55268;SDS011;41131;42.990;21.954;2022-12-07T03:42:33;66.50;;;51.33;;
55268;SDS011;41131;42.990;21.954;2022-12-07T03:44:59;71.03;;;54.88;;
55268;SDS011;41131;42.990;21.954;2022-12-07T03:47:32;85.45;;;61.13;;
55268;SDS011;41131;42.990;21.954;2022-12-07T03:50:12;106.28;;;71.50;;
55268;SDS011;41131;42.990;21.954;2022-12-07T03:52:43;101.55;;;70.28;;
55268;SDS011;41131;42.990;21.954;2022-12-07T03:55:14;100.28;;;69.53;;
55268;SDS011;41131;42.990;21.954;2022-12-07T03:57:46;96.65;;;67.00;;
55268;SDS011;41131;42.990;21.954;2022-12-07T04:00:15;92.22;;;64.13;;
55268;SDS011;41131;42.990;21.954;2022-12-07T04:02:42;86.32;;;63.15;;
55268;SDS011;41131;42.990;21.954;2022-12-07T04:05:08;86.95;;;64.03;;
55268;SDS011;41131;42.990;21.954;2022-12-07T04:07:34;78.78;;;58.65;;
55268;SDS011;41131;42.990;21.954;2022-12-07T04:10:00;80.25;;;59.88;;
55268;SDS011;41131;42.990;21.954;2022-12-07T04:12:26;81.65;;;61.17;;
55268;SDS011;41131;42.990;21.954;2022-12-07T04:14:51;81.93;;;61.40;;
55268;SDS011;41131;42.990;21.954;2022-12-07T04:17:17;75.45;;;60.15;;
55268;SDS011;41131;42.990;21.954;2022-12-07T04:19:43;83.45;;;59.88;;
55268;SDS011;41131;42.990;21.954;2022-12-07T04:22:08;79.97;;;60.03;;
55268;SDS011;41131;42.990;21.954;2022-12-07T04:24:34;77.90;;;60.45;;
55268;SDS011;41131;42.990;21.954;2022-12-07T04:27:00;80.78;;;58.72;;
55268;SDS011;41131;42.990;21.954;2022-12-07T04:29:26;82.32;;;61.40;;
55268;SDS011;41131;42.990;21.954;2022-12-07T04:31:52;81.20;;;62.47;;
55268;SDS011;41131;42.990;21.954;2022-12-07T04:34:18;83.82;;;62.42;;
55268;SDS011;41131;42.990;21.954;2022-12-07T04:36:45;90.57;;;69.43;;
55268;SDS011;41131;42.990;21.954;2022-12-07T04:39:22;88.07;;;72.68;;
55268;SDS011;41131;42.990;21.954;2022-12-07T04:41:58;104.15;;;79.43;;
55268;SDS011;41131;42.990;21.954;2022-12-07T04:44:25;100.07;;;77.47;;
55268;SDS011;41131;42.990;21.954;2022-12-07T04:46:52;86.13;;;69.78;;
55268;SDS011;41131;42.990;21.954;2022-12-07T04:49:18;102.88;;;82.65;;
55268;SDS011;41131;42.990;21.954;2022-12-07T04:51:45;92.35;;;71.85;;
55268;SDS011;41131;42.990;21.954;2022-12-07T04:54:11;97.38;;;76.05;;
55268;SDS011;41131;42.990;21.954;2022-12-07T04:56:38;99.25;;;75.78;;
55268;SDS011;41131;42.990;21.954;2022-12-07T04:59:04;98.60;;;78.70;;
55268;SDS011;41131;42.990;21.954;2022-12-07T05:01:30;100.63;;;81.13;;
55268;SDS011;41131;42.990;21.954;2022-12-07T05:03:56;110.18;;;84.97;;
55268;SDS011;41131;42.990;21.954;2022-12-07T05:06:22;107.15;;;84.45;;
55268;SDS011;41131;42.990;21.954;2022-12-07T05:08:48;104.40;;;80.30;;
55268;SDS011;41131;42.990;21.954;2022-12-07T05:11:14;98.55;;;78.32;;
55268;SDS011;41131;42.990;21.954;2022-12-07T05:13:59;95.45;;;77.40;;
55268;SDS011;41131;42.990;21.954;2022-12-07T05:16:25;103.60;;;82.68;;
55268;SDS011;41131;42.990;21.954;2022-12-07T05:18:51;108.40;;;82.05;;
55268;SDS011;41131;42.990;21.954;2022-12-07T05:21:17;110.88;;;84.88;;
55268;SDS011;41131;42.990;21.954;2022-12-07T05:23:43;142.93;;;98.90;;
55268;SDS011;41131;42.990;21.954;2022-12-07T05:26:09;177.20;;;117.35;;
55268;SDS011;41131;42.990;21.954;2022-12-07T05:28:35;171.65;;;113.57;;
55268;SDS011;41131;42.990;21.954;2022-12-07T05:31:00;146.52;;;101.18;;
55268;SDS011;41131;42.990;21.954;2022-12-07T05:33:26;137.95;;;97.25;;
55268;SDS011;41131;42.990;21.954;2022-12-07T05:35:52;145.40;;;109.45;;
55268;SDS011;41131;42.990;21.954;2022-12-07T05:38:18;161.43;;;123.50;;
55268;SDS011;41131;42.990;21.954;2022-12-07T05:40:44;141.20;;;105.65;;
55268;SDS011;41131;42.990;21.954;2022-12-07T05:43:09;122.55;;;90.30;;
55268;SDS011;41131;42.990;21.954;2022-12-07T05:45:35;92.28;;;69.47;;
55268;SDS011;41131;42.990;21.954;2022-12-07T05:48:01;103.13;;;75.07;;
55268;SDS011;41131;42.990;21.954;2022-12-07T05:50:27;120.07;;;89.13;;
55268;SDS011;41131;42.990;21.954;2022-12-07T05:52:53;111.28;;;83.22;;
55268;SDS011;41131;42.990;21.954;2022-12-07T05:55:18;116.10;;;86.60;;
55268;SDS011;41131;42.990;21.954;2022-12-07T05:57:44;121.22;;;92.75;;
55268;SDS011;41131;42.990;21.954;2022-12-07T06:00:30;130.88;;;96.00;;
55268;SDS011;41131;42.990;21.954;2022-12-07T06:02:56;113.75;;;85.97;;
55268;SDS011;41131;42.990;21.954;2022-12-07T06:05:22;110.28;;;87.13;;
55268;SDS011;41131;42.990;21.954;2022-12-07T06:07:48;107.82;;;83.25;;
55268;SDS011;41131;42.990;21.954;2022-12-07T06:10:13;97.05;;;75.57;;
55268;SDS011;41131;42.990;21.954;2022-12-07T06:12:39;100.18;;;78.72;;
55268;SDS011;41131;42.990;21.954;2022-12-07T06:15:07;132.85;;;108.40;;
55268;SDS011;41131;42.990;21.954;2022-12-07T06:17:35;143.35;;;114.05;;
55268;SDS011;41131;42.990;21.954;2022-12-07T06:20:01;150.43;;;116.60;;
55268;SDS011;41131;42.990;21.954;2022-12-07T06:22:28;145.20;;;117.55;;
55268;SDS011;41131;42.990;21.954;2022-12-07T06:24:53;169.55;;;135.50;;
55268;SDS011;41131;42.990;21.954;2022-12-07T06:27:19;222.95;;;167.77;;
55268;SDS011;41131;42.990;21.954;2022-12-07T06:29:45;202.65;;;149.25;;
55268;SDS011;41131;42.990;21.954;2022-12-07T06:32:11;186.07;;;146.75;;
55268;SDS011;41131;42.990;21.954;2022-12-07T06:34:37;193.20;;;142.77;;
55268;SDS011;41131;42.990;21.954;2022-12-07T06:37:03;184.27;;;142.95;;
55268;SDS011;41131;42.990;21.954;2022-12-07T06:39:29;178.25;;;137.10;;
55268;SDS011;41131;42.990;21.954;2022-12-07T06:41:55;182.40;;;138.48;;
55268;SDS011;41131;42.990;21.954;2022-12-07T06:44:22;173.05;;;132.45;;
55268;SDS011;41131;42.990;21.954;2022-12-07T06:46:48;179.93;;;135.73;;
55268;SDS011;41131;42.990;21.954;2022-12-07T06:49:15;178.65;;;138.82;;
55268;SDS011;41131;42.990;21.954;2022-12-07T06:51:40;182.73;;;143.60;;
55268;SDS011;41131;42.990;21.954;2022-12-07T06:54:07;174.18;;;137.55;;
55268;SDS011;41131;42.990;21.954;2022-12-07T06:56:34;189.15;;;143.73;;
55268;SDS011;41131;42.990;21.954;2022-12-07T06:58:59;178.30;;;133.00;;
55268;SDS011;41131;42.990;21.954;2022-12-07T07:01:25;175.57;;;136.45;;
55268;SDS011;41131;42.990;21.954;2022-12-07T07:03:51;256.85;;;198.82;;
55268;SDS011;41131;42.990;21.954;2022-12-07T07:06:17;191.02;;;147.57;;
55268;SDS011;41131;42.990;21.954;2022-12-07T07:08:43;166.05;;;128.65;;
55268;SDS011;41131;42.990;21.954;2022-12-07T07:11:09;180.05;;;137.77;;
55268;SDS011;41131;42.990;21.954;2022-12-07T07:13:35;142.80;;;115.03;;
55268;SDS011;41131;42.990;21.954;2022-12-07T07:16:01;124.72;;;100.72;;
55268;SDS011;41131;42.990;21.954;2022-12-07T07:18:27;103.50;;;81.18;;
55268;SDS011;41131;42.990;21.954;2022-12-07T07:20:54;103.20;;;79.28;;
55268;SDS011;41131;42.990;21.954;2022-12-07T07:23:20;87.22;;;65.43;;
55268;SDS011;41131;42.990;21.954;2022-12-07T07:25:46;84.88;;;64.93;;
55268;SDS011;41131;42.990;21.954;2022-12-07T07:28:12;80.50;;;60.75;;
55268;SDS011;41131;42.990;21.954;2022-12-07T07:30:38;81.20;;;58.88;;
55268;SDS011;41131;42.990;21.954;2022-12-07T07:33:04;112.68;;;58.13;;
55268;SDS011;41131;42.990;21.954;2022-12-07T07:35:31;81.53;;;45.17;;
55268;SDS011;41131;42.990;21.954;2022-12-07T07:38:05;85.38;;;50.45;;
55268;SDS011;41131;42.990;21.954;2022-12-07T07:40:31;79.43;;;48.75;;
55268;SDS011;41131;42.990;21.954;2022-12-07T07:42:57;125.03;;;73.70;;
55268;SDS011;41131;42.990;21.954;2022-12-07T07:45:24;86.38;;;61.50;;
55268;SDS011;41131;42.990;21.954;2022-12-07T07:47:51;74.07;;;57.25;;
55268;SDS011;41131;42.990;21.954;2022-12-07T07:50:17;93.57;;;71.15;;
55268;SDS011;41131;42.990;21.954;2022-12-07T07:52:44;62.78;;;47.05;;
55268;SDS011;41131;42.990;21.954;2022-12-07T07:55:10;63.22;;;47.50;;
55268;SDS011;41131;42.990;21.954;2022-12-07T07:57:36;53.60;;;42.38;;
55268;SDS011;41131;42.990;21.954;2022-12-07T08:00:03;51.30;;;37.45;;
55268;SDS011;41131;42.990;21.954;2022-12-07T08:02:31;58.58;;;34.75;;
55268;SDS011;41131;42.990;21.954;2022-12-07T08:04:56;52.80;;;32.30;;
55268;SDS011;41131;42.990;21.954;2022-12-07T08:07:22;48.80;;;30.13;;
55268;SDS011;41131;42.990;21.954;2022-12-07T08:09:48;40.63;;;29.58;;
55268;SDS011;41131;42.990;21.954;2022-12-07T08:12:14;41.78;;;33.35;;
55268;SDS011;41131;42.990;21.954;2022-12-07T08:14:39;33.03;;;25.73;;
55268;SDS011;41131;42.990;21.954;2022-12-07T08:17:06;25.90;;;17.60;;
55268;SDS011;41131;42.990;21.954;2022-12-07T08:19:32;34.80;;;25.98;;
55268;SDS011;41131;42.990;21.954;2022-12-07T08:21:58;40.85;;;29.38;;
55268;SDS011;41131;42.990;21.954;2022-12-07T08:24:24;30.15;;;21.23;;
55268;SDS011;41131;42.990;21.954;2022-12-07T08:26:50;27.08;;;20.00;;
55268;SDS011;41131;42.990;21.954;2022-12-07T08:29:16;21.30;;;15.13;;
55268;SDS011;41131;42.990;21.954;2022-12-07T08:31:42;22.58;;;15.23;;
55268;SDS011;41131;42.990;21.954;2022-12-07T08:34:09;19.90;;;15.32;;
55268;SDS011;41131;42.990;21.954;2022-12-07T08:36:36;23.85;;;16.98;;
55268;SDS011;41131;42.990;21.954;2022-12-07T08:39:02;22.52;;;15.63;;
55268;SDS011;41131;42.990;21.954;2022-12-07T08:41:28;23.17;;;16.75;;
55268;SDS011;41131;42.990;21.954;2022-12-07T08:43:55;21.70;;;16.13;;
55268;SDS011;41131;42.990;21.954;2022-12-07T08:46:21;24.90;;;20.52;;
55268;SDS011;41131;42.990;21.954;2022-12-07T08:51:14;44.60;;;33.40;;
55268;SDS011;41131;42.990;21.954;2022-12-07T08:53:41;47.53;;;38.08;;
55268;SDS011;41131;42.990;21.954;2022-12-07T08:56:08;54.97;;;46.00;;
55268;SDS011;41131;42.990;21.954;2022-12-07T08:58:34;69.38;;;57.95;;
55268;SDS011;41131;42.990;21.954;2022-12-07T09:01:01;39.15;;;29.15;;
55268;SDS011;41131;42.990;21.954;2022-12-07T09:03:28;36.00;;;31.58;;
55268;SDS011;41131;42.990;21.954;2022-12-07T09:05:53;34.45;;;26.80;;
55268;SDS011;41131;42.990;21.954;2022-12-07T09:08:20;50.67;;;37.83;;
55268;SDS011;41131;42.990;21.954;2022-12-07T09:10:47;50.25;;;37.67;;
55268;SDS011;41131;42.990;21.954;2022-12-07T09:13:13;83.70;;;46.03;;
55268;SDS011;41131;42.990;21.954;2022-12-07T09:15:39;72.38;;;52.83;;
55268;SDS011;41131;42.990;21.954;2022-12-07T09:18:05;53.90;;;40.75;;
55268;SDS011;41131;42.990;21.954;2022-12-07T09:20:31;46.35;;;33.13;;
55268;SDS011;41131;42.990;21.954;2022-12-07T09:22:57;44.88;;;39.67;;
55268;SDS011;41131;42.990;21.954;2022-12-07T09:25:23;35.85;;;30.30;;
55268;SDS011;41131;42.990;21.954;2022-12-07T09:27:55;41.38;;;31.92;;
55268;SDS011;41131;42.990;21.954;2022-12-07T09:30:21;36.63;;;30.48;;
55268;SDS011;41131;42.990;21.954;2022-12-07T09:32:47;34.65;;;28.50;;
55268;SDS011;41131;42.990;21.954;2022-12-07T09:35:13;88.20;;;72.80;;
55268;SDS011;41131;42.990;21.954;2022-12-07T09:37:40;26.48;;;22.58;;
55268;SDS011;41131;42.990;21.954;2022-12-07T09:40:06;21.70;;;18.83;;
55268;SDS011;41131;42.990;21.954;2022-12-07T09:42:33;29.63;;;21.70;;
55268;SDS011;41131;42.990;21.954;2022-12-07T09:44:59;58.85;;;41.50;;
55268;SDS011;41131;42.990;21.954;2022-12-07T09:47:26;31.98;;;25.77;;
55268;SDS011;41131;42.990;21.954;2022-12-07T09:49:54;37.08;;;27.27;;
55268;SDS011;41131;42.990;21.954;2022-12-07T09:52:25;27.50;;;20.30;;
55268;SDS011;41131;42.990;21.954;2022-12-07T09:54:52;36.72;;;26.48;;
55268;SDS011;41131;42.990;21.954;2022-12-07T09:57:20;28.27;;;20.33;;
55268;SDS011;41131;42.990;21.954;2022-12-07T09:59:48;41.65;;;31.13;;
55268;SDS011;41131;42.990;21.954;2022-12-07T10:02:35;156.13;;;118.70;;
55268;SDS011;41131;42.990;21.954;2022-12-07T10:05:03;43.08;;;33.55;;
55268;SDS011;41131;42.990;21.954;2022-12-07T10:07:29;35.63;;;29.33;;
55268;SDS011;41131;42.990;21.954;2022-12-07T10:09:55;28.95;;;20.23;;
55268;SDS011;41131;42.990;21.954;2022-12-07T10:12:22;28.75;;;19.45;;
55268;SDS011;41131;42.990;21.954;2022-12-07T10:15:00;28.00;;;21.45;;
55268;SDS011;41131;42.990;21.954;2022-12-07T10:17:40;31.13;;;20.60;;
55268;SDS011;41131;42.990;21.954;2022-12-07T10:22:37;33.33;;;25.50;;
55268;SDS011;41131;42.990;21.954;2022-12-07T10:25:18;34.30;;;24.45;;
55268;SDS011;41131;42.990;21.954;2022-12-07T10:27:44;42.10;;;29.70;;
55268;SDS011;41131;42.990;21.954;2022-12-07T10:30:22;26.40;;;21.63;;
55268;SDS011;41131;42.990;21.954;2022-12-07T10:32:48;22.45;;;18.02;;
55268;SDS011;41131;42.990;21.954;2022-12-07T10:35:19;30.58;;;17.88;;
55268;SDS011;41131;42.990;21.954;2022-12-07T10:37:46;31.23;;;26.15;;
55268;SDS011;41131;42.990;21.954;2022-12-07T10:40:29;66.78;;;51.00;;
55268;SDS011;41131;42.990;21.954;2022-12-07T10:48:49;33.60;;;24.90;;
55268;SDS011;41131;42.990;21.954;2022-12-07T10:56:26;16.13;;;12.88;;
55268;SDS011;41131;42.990;21.954;2022-12-07T11:04:24;16.88;;;12.85;;
55268;SDS011;41131;42.990;21.954;2022-12-07T11:12:27;25.45;;;15.93;;
55268;SDS011;41131;42.990;21.954;2022-12-07T11:20:17;19.98;;;11.73;;
55268;SDS011;41131;42.990;21.954;2022-12-07T11:23:39;22.90;;;12.40;;
55268;SDS011;41131;42.990;21.954;2022-12-07T11:25:43;17.13;;;11.07;;
55268;SDS011;41131;42.990;21.954;2022-12-07T11:33:41;43.13;;;21.63;;
55268;SDS011;41131;42.990;21.954;2022-12-07T11:38:53;18.30;;;9.77;;
55268;SDS011;41131;42.990;21.954;2022-12-07T11:41:23;39.88;;;9.73;;
55268;SDS011;41131;42.990;21.954;2022-12-07T11:55:00;34.53;;;19.13;;
55268;SDS011;41131;42.990;21.954;2022-12-07T11:57:33;28.10;;;16.50;;
55268;SDS011;41131;42.990;21.954;2022-12-07T12:00:05;23.55;;;10.60;;
55268;SDS011;41131;42.990;21.954;2022-12-07T12:03:38;31.77;;;10.50;;
55268;SDS011;41131;42.990;21.954;2022-12-07T12:05:36;52.60;;;13.25;;
55268;SDS011;41131;42.990;21.954;2022-12-07T12:08:14;23.02;;;13.65;;
55268;SDS011;41131;42.990;21.954;2022-12-07T12:22:17;77.82;;;23.63;;
55268;SDS011;41131;42.990;21.954;2022-12-07T12:24:46;35.00;;;14.73;;
55268;SDS011;41131;42.990;21.954;2022-12-07T12:27:29;52.63;;;18.40;;
55268;SDS011;41131;42.990;21.954;2022-12-07T12:30:00;28.33;;;13.25;;
55268;SDS011;41131;42.990;21.954;2022-12-07T12:32:36;37.45;;;17.85;;
55268;SDS011;41131;42.990;21.954;2022-12-07T12:37:49;64.53;;;17.40;;
55268;SDS011;41131;42.990;21.954;2022-12-07T12:45:25;20.90;;;12.18;;
55268;SDS011;41131;42.990;21.954;2022-12-07T12:47:54;319.25;;;38.35;;
55268;SDS011;41131;42.990;21.954;2022-12-07T12:50:34;36.10;;;13.27;;
55268;SDS011;41131;42.990;21.954;2022-12-07T12:58:32;42.50;;;19.55;;
55268;SDS011;41131;42.990;21.954;2022-12-07T13:04:12;21.33;;;10.82;;
55268;SDS011;41131;42.990;21.954;2022-12-07T13:06:48;55.65;;;20.65;;
55268;SDS011;41131;42.990;21.954;2022-12-07T13:09:18;34.88;;;17.67;;
55268;SDS011;41131;42.990;21.954;2022-12-07T13:11:59;32.15;;;16.02;;
55268;SDS011;41131;42.990;21.954;2022-12-07T13:14:43;33.13;;;18.27;;
55268;SDS011;41131;42.990;21.954;2022-12-07T13:19:58;19.58;;;12.60;;
55268;SDS011;41131;42.990;21.954;2022-12-07T13:25:03;57.95;;;25.38;;
55268;SDS011;41131;42.990;21.954;2022-12-07T13:27:34;32.70;;;15.70;;
55268;SDS011;41131;42.990;21.954;2022-12-07T13:30:07;45.15;;;18.90;;
55268;SDS011;41131;42.990;21.954;2022-12-07T13:32:43;39.40;;;20.70;;
55268;SDS011;41131;42.990;21.954;2022-12-07T13:35:33;56.70;;;27.85;;
55268;SDS011;41131;42.990;21.954;2022-12-07T13:38:01;67.47;;;38.50;;
55268;SDS011;41131;42.990;21.954;2022-12-07T13:40:30;47.80;;;27.80;;
55268;SDS011;41131;42.990;21.954;2022-12-07T13:42:57;107.15;;;44.03;;
55268;SDS011;41131;42.990;21.954;2022-12-07T13:45:29;75.78;;;43.72;;
55268;SDS011;41131;42.990;21.954;2022-12-07T13:50:55;143.00;;;48.65;;
55268;SDS011;41131;42.990;21.954;2022-12-07T13:53:22;146.95;;;48.88;;
55268;SDS011;41131;42.990;21.954;2022-12-07T13:55:49;139.85;;;58.67;;
55268;SDS011;41131;42.990;21.954;2022-12-07T13:58:15;211.02;;;73.25;;
55268;SDS011;41131;42.990;21.954;2022-12-07T14:00:41;121.13;;;56.88;;
55268;SDS011;41131;42.990;21.954;2022-12-07T14:05:37;69.13;;;34.80;;
55268;SDS011;41131;42.990;21.954;2022-12-07T14:08:06;90.55;;;43.08;;
55268;SDS011;41131;42.990;21.954;2022-12-07T14:16:01;64.18;;;24.00;;
55268;SDS011;41131;42.990;21.954;2022-12-07T14:18:36;44.78;;;18.75;;
55268;SDS011;41131;42.990;21.954;2022-12-07T14:21:14;36.58;;;23.65;;
55268;SDS011;41131;42.990;21.954;2022-12-07T14:23:40;46.80;;;29.33;;
55268;SDS011;41131;42.990;21.954;2022-12-07T14:28:44;124.93;;;72.25;;
55268;SDS011;41131;42.990;21.954;2022-12-07T14:31:11;79.35;;;44.95;;
55268;SDS011;41131;42.990;21.954;2022-12-07T14:33:40;65.60;;;34.78;;
55268;SDS011;41131;42.990;21.954;2022-12-07T14:36:08;53.80;;;29.33;;
55268;SDS011;41131;42.990;21.954;2022-12-07T14:38:35;60.70;;;29.80;;
55268;SDS011;41131;42.990;21.954;2022-12-07T14:41:01;54.85;;;29.90;;
55268;SDS011;41131;42.990;21.954;2022-12-07T14:43:47;46.67;;;33.05;;
55268;SDS011;41131;42.990;21.954;2022-12-07T14:46:13;72.80;;;47.05;;
55268;SDS011;41131;42.990;21.954;2022-12-07T14:48:39;82.68;;;48.72;;
55268;SDS011;41131;42.990;21.954;2022-12-07T14:51:04;90.20;;;50.38;;
55268;SDS011;41131;42.990;21.954;2022-12-07T14:53:33;72.50;;;44.70;;
55268;SDS011;41131;42.990;21.954;2022-12-07T14:56:02;95.47;;;57.85;;
55268;SDS011;41131;42.990;21.954;2022-12-07T14:58:30;135.63;;;75.65;;
55268;SDS011;41131;42.990;21.954;2022-12-07T15:00:57;105.63;;;71.50;;
55268;SDS011;41131;42.990;21.954;2022-12-07T15:03:23;102.72;;;69.53;;
55268;SDS011;41131;42.990;21.954;2022-12-07T15:05:49;136.80;;;81.22;;
55268;SDS011;41131;42.990;21.954;2022-12-07T15:08:14;159.25;;;92.68;;
55268;SDS011;41131;42.990;21.954;2022-12-07T15:10:40;128.75;;;83.60;;
55268;SDS011;41131;42.990;21.954;2022-12-07T15:13:07;132.80;;;91.55;;
55268;SDS011;41131;42.990;21.954;2022-12-07T15:15:51;132.80;;;82.75;;
55268;SDS011;41131;42.990;21.954;2022-12-07T15:18:19;102.00;;;67.25;;
55268;SDS011;41131;42.990;21.954;2022-12-07T15:20:46;117.82;;;67.50;;
55268;SDS011;41131;42.990;21.954;2022-12-07T15:23:12;122.30;;;79.43;;
55268;SDS011;41131;42.990;21.954;2022-12-07T15:25:41;117.38;;;71.20;;
55268;SDS011;41131;42.990;21.954;2022-12-07T15:28:08;88.22;;;54.90;;
55268;SDS011;41131;42.990;21.954;2022-12-07T15:30:36;84.00;;;53.00;;
55268;SDS011;41131;42.990;21.954;2022-12-07T15:33:02;106.32;;;77.80;;
55268;SDS011;41131;42.990;21.954;2022-12-07T15:35:28;133.85;;;97.68;;
55268;SDS011;41131;42.990;21.954;2022-12-07T15:37:54;117.95;;;77.97;;
55268;SDS011;41131;42.990;21.954;2022-12-07T15:40:19;112.45;;;68.50;;
55268;SDS011;41131;42.990;21.954;2022-12-07T15:42:45;106.85;;;71.05;;
55268;SDS011;41131;42.990;21.954;2022-12-07T15:45:12;81.93;;;57.70;;
55268;SDS011;41131;42.990;21.954;2022-12-07T15:47:41;80.13;;;53.25;;
55268;SDS011;41131;42.990;21.954;2022-12-07T15:50:10;67.47;;;48.40;;
55268;SDS011;41131;42.990;21.954;2022-12-07T15:52:38;74.95;;;55.72;;
55268;SDS011;41131;42.990;21.954;2022-12-07T15:55:04;60.08;;;42.85;;
55268;SDS011;41131;42.990;21.954;2022-12-07T15:57:30;59.50;;;43.80;;
55268;SDS011;41131;42.990;21.954;2022-12-07T15:59:57;53.13;;;37.28;;
55268;SDS011;41131;42.990;21.954;2022-12-07T16:02:23;66.20;;;47.58;;
55268;SDS011;41131;42.990;21.954;2022-12-07T16:04:50;93.30;;;65.22;;
55268;SDS011;41131;42.990;21.954;2022-12-07T16:07:17;99.85;;;74.47;;
55268;SDS011;41131;42.990;21.954;2022-12-07T16:09:43;109.63;;;81.72;;
55268;SDS011;41131;42.990;21.954;2022-12-07T16:12:11;118.47;;;90.38;;
55268;SDS011;41131;42.990;21.954;2022-12-07T16:14:37;130.50;;;77.32;;
55268;SDS011;41131;42.990;21.954;2022-12-07T16:17:03;121.85;;;77.43;;
55268;SDS011;41131;42.990;21.954;2022-12-07T16:19:30;122.05;;;73.95;;
55268;SDS011;41131;42.990;21.954;2022-12-07T16:21:57;164.48;;;113.97;;
55268;SDS011;41131;42.990;21.954;2022-12-07T16:24:22;216.50;;;169.15;;
55268;SDS011;41131;42.990;21.954;2022-12-07T16:26:48;208.88;;;158.18;;
55268;SDS011;41131;42.990;21.954;2022-12-07T16:29:15;178.38;;;136.68;;